x

Boston 16 Nm East Of Boston, Ma (44013) Wave Buoy

9:50 - Tue 23rd Sep 2014 All times are EDT. -4 hours from GMT.

  • Sig Wave height 2.0ft
  • Swell Direction
  • Peak Period 11s
  • Average Period 6s
  • Wind
    7mph, 11mph gusts
  • Sea Temp 60°f
  • Ar Temp 55°f
  • Sea Pressure 1025.1mb
  • Boston 16 Nm East Of Boston, Ma
  • Boston 16 Nm East Of Boston, Ma

More Historic Weather Station data

Upgrade to MSW Pro to gain access to the past 30 days of data for over 8000 Wavebouys and Weather Stations around the globe.

Join Pro

Comparision Forecast

View Surf forecast
   
Ter 09/23 9:50 2ft 11s 6s 7 11 mph 1025.1mb 60f 55f
8:50 2.5ft 10s 6s 7 9 mph 1024.7mb 60f 54f
7:50 2.5ft 10s 6s 11 13 mph 1024.1mb 60f 54f
6:50 2.5ft 10s 5s 11 18 mph 1023.2mb 60f 53f
5:50 2.5ft 11s 5s 11 13 mph 1022.7mb 60f 53f
4:50 2.5ft 11s 4s 16 20 mph 1021.9mb 60f 54f
3:50 2.5ft 11s 5s 16 20 mph 1021mb 60f 54f
2:50 2.5ft 11s 4s 18 20 mph 1020.1mb 60f 55f
1:50 2.5ft 10s 5s 16 22 mph 1020mb 60f 55f
12:50 3ft 11s 4s 16 20 mph 1019.3mb 60f 55f
Seg 09/22 11:50 3.5ft 4s 4s 22 31 mph 1018.2mb 60f 56f
10:50 4ft 4s 4s 31 38 mph 1017mb 60f 56f
9:50 4ft 4s 4s 25 31 mph 1016.1mb 60f 58f
8:50 4ft 11s 5s 25 31 mph 1015mb 60f 60f
7:50 4.5ft 11s 5s 22 27 mph 1013.5mb 61f 62f
6:50 4ft 10s 6s 18 22 mph 1012.2mb 61f 63f
5:50 4.5ft 11s 6s 16 18 mph 1011.2mb 61f 64f
4:50 4.5ft 11s 6s 16 20 mph 1009.8mb 61f 65f
3:50 4.5ft 12s 6s 20 25 mph 1008.6mb 61f 66f
2:50 4ft 11s 5s 16 20 mph 1007.9mb 61f 65f
1:50 3.5ft 11s 5s 18 22 mph 1007mb 61f 65f
12:50 3.5ft 11s 5s 16 20 mph 1007mb 61f 65f
11:50 3.5ft 11s 5s 16 18 mph 1006.5mb 61f 64f
10:50 3ft 12s 4s 18 20 mph 1006mb 60f 64f
9:50 2.5ft 11s 4s 16 20 mph 1005.5mb 60f 64f
8:50 2.5ft 8s 4s 18 20 mph 1004.9mb 60f 63f
7:50 2.5ft 6s 4s 16 18 mph 1003.9mb 60f 64f
6:50 2ft 9s 4s 16 18 mph 1003.3mb 60f 64f
5:50 1.6ft 9s 4s 13 16 mph 1002mb 60f 64f
4:50 1.6ft 7s 4s 11 13 mph 1000.7mb 60f 64f
3:50 1.6ft 10s 5s 9 11 mph 1000.3mb 60f 64f
2:50 1.6ft 11s 5s 9
mph
1000.3mb 60f 64f
1:50 1.6ft 10s 5s 9 11 mph 1000.2mb 61f 65f
12:50 1.3ft 10s 5s 4 7 mph 1000.4mb 61f 62f
Dom 09/21 11:50 1.3ft 10s 5s 2 4 mph 1000.6mb 61f 62f
10:50 1.6ft 10s 5s 4 7 mph 1000.8mb 61f 63f
9:50 1.6ft 11s 4s 4
mph
1001.6mb 61f 63f
8:50 2ft 11s 5s 7 9 mph 1002.4mb 61f 63f
7:50 2ft 11s 4s 9
mph
1003.4mb 61f 64f
6:50 2ft 11s 4s 9 11 mph 1003.5mb 61f 63f
5:50 1.6ft 11s 4s 9 11 mph 1004.7mb 61f 64f
4:50 2ft 11s 4s 13
mph
1005.7mb 62f 64f
3:50 2ft 11s 4s 13 16 mph 1006.7mb 62f 65f
2:50 2ft 3s 4s 16 18 mph 1007.5mb 61f 65f
1:50 2.5ft 11s 4s 13
mph
1008.9mb 61f 65f
12:50 2.5ft 3s 4s 16 18 mph 1010.5mb 61f 65f
11:50 2.5ft 4s 4s 16 18 mph 1011.7mb 61f 66f
10:50 2.5ft 5s 4s 16 18 mph 1012.6mb 61f 65f
9:50 2.5ft 4s 4s 13 16 mph 1013.6mb 61f 64f
8:50 2ft 4s 4s 11
mph
1013.8mb 61f 63f
7:50 2.5ft 10s 4s 11 13 mph 1014.3mb 61f 63f
6:50 2ft 11s 4s 13 16 mph 1014.4mb 61f 62f
5:50 2ft 8s 4s 13 16 mph 1015mb 61f 62f
4:50 1.6ft 9s 4s 9 11 mph 1015.9mb 61f 62f
3:50 1.6ft 10s 4s 9 11 mph 1016.4mb 61f 62f
2:50 1.6ft 9s 4s 11 13 mph 1017.2mb 61f 61f
1:50 1.6ft 9s 4s 11 13 mph 1018.3mb 61f 62f
12:50 1.6ft 9s 4s 13 18 mph 1018.8mb 61f 62f
Sáb 09/20 11:50 2ft 4s 4s 11 13 mph 1019.4mb 61f 62f
10:50 2ft 4s 4s 11 13 mph 1020.1mb 61f 62f
9:50 2.5ft 4s 4s 16 18 mph 1020.5mb 61f 62f
8:50 2.5ft 5s 4s 13
mph
1020.9mb 61f 63f
7:50 2.5ft 4s 4s 13
mph
1021.3mb 61f 64f
6:50 2.5ft 4s 4s 11 13 mph 1021.4mb 61f 63f
5:50 2.5ft 9s 4s 13 18 mph 1021.5mb 61f 64f
4:50 2.5ft 8s 4s 16 18 mph 1021.8mb 61f 65f
3:50 2.5ft 4s 4s 18 20 mph 1022.1mb 61f 63f
2:50 2.5ft 4s 4s 16 18 mph 1022.9mb 61f 63f
1:50 2.5ft 4s 4s 16 18 mph 1023.4mb 61f 63f
12:50 2.5ft 4s 4s 18 22 mph 1024.8mb 61f 60f
11:50 2.5ft 4s 4s 16 18 mph 1025.8mb 61f 59f
10:50 2.5ft 3s 4s 18 20 mph 1026.2mb 61f 58f
9:50 2.5ft 6s 4s 16 18 mph 1027mb 60f 58f
8:50 2ft 6s 4s 16 18 mph 1027.5mb 60f 57f
7:50 2.5ft 6s 4s 13 16 mph 1028.1mb 60f 56f
6:50 2.5ft 6s 4s 13 16 mph 1028.6mb 60f 55f
5:50 2.5ft 4s 4s 11 16 mph 1028.8mb 60f 55f
4:50 2.5ft 4s 4s 16 18 mph 1029.1mb 60f 55f
3:50 2.5ft 7s 4s 16 20 mph 1028.8mb 60f 55f
2:50 2.5ft 7s 4s 13 18 mph 1029.5mb 60f 55f
1:50 3ft 6s 4s 16 20 mph 1029.4mb 60f 55f
12:50 2.5ft 7s 4s 13 18 mph 1029.5mb 60f 54f
Sex 09/19 11:50 3ft 6s 5s 13 18 mph 1030mb 60f 54f
10:50 3.5ft 7s 5s 13 18 mph 1030.3mb 60f 53f
9:50 3.5ft 6s 5s 7 11 mph 1030.6mb 60f 53f
8:50 3.5ft 6s 5s 7 9 mph 1030.7mb 60f 52f
7:50 3.5ft 7s 5s 4 7 mph 1030.8mb 61f 52f
6:50 3.5ft 6s 5s 4 7 mph 1030.2mb 61f 52f
5:50 3.5ft 6s 5s 4 9 mph 1030.1mb 61f 53f
4:50 3.5ft 6s 5s 7 11 mph 1029.9mb 61f 53f
3:50 4ft 6s 5s 9 13 mph 1030.1mb 61f 52f